sensor_id;sensor_type;location;lat;lon;timestamp;temperature;humidity
21762;DHT22;11203;50.870;20.682;2022-08-21T00:00:18;20.20;99.90
21762;DHT22;11203;50.870;20.682;2022-08-21T00:03:09;20.20;99.90
21762;DHT22;11203;50.870;20.682;2022-08-21T00:05:40;20.20;99.90
21762;DHT22;11203;50.870;20.682;2022-08-21T00:08:10;20.20;99.90
21762;DHT22;11203;50.870;20.682;2022-08-21T00:10:36;20.20;99.90
21762;DHT22;11203;50.870;20.682;2022-08-21T00:13:04;20.20;99.90
21762;DHT22;11203;50.870;20.682;2022-08-21T00:15:33;20.20;99.90
21762;DHT22;11203;50.870;20.682;2022-08-21T00:18:01;20.20;99.90
21762;DHT22;11203;50.870;20.682;2022-08-21T00:20:28;20.10;99.90
21762;DHT22;11203;50.870;20.682;2022-08-21T00:22:54;20.10;99.90
21762;DHT22;11203;50.870;20.682;2022-08-21T00:25:20;20.00;99.90
21762;DHT22;11203;50.870;20.682;2022-08-21T00:27:47;20.00;1.00
21762;DHT22;11203;50.870;20.682;2022-08-21T00:30:15;20.00;1.00
21762;DHT22;11203;50.870;20.682;2022-08-21T00:32:43;19.90;1.00
21762;DHT22;11203;50.870;20.682;2022-08-21T00:35:13;19.90;1.00
21762;DHT22;11203;50.870;20.682;2022-08-21T00:37:42;19.90;1.00
21762;DHT22;11203;50.870;20.682;2022-08-21T00:40:11;19.90;1.00
21762;DHT22;11203;50.870;20.682;2022-08-21T00:42:41;19.90;1.00
21762;DHT22;11203;50.870;20.682;2022-08-21T00:45:08;19.90;1.00
21762;DHT22;11203;50.870;20.682;2022-08-21T00:47:34;19.90;1.00
21762;DHT22;11203;50.870;20.682;2022-08-21T00:50:01;19.90;1.00
21762;DHT22;11203;50.870;20.682;2022-08-21T00:52:32;19.90;1.00
21762;DHT22;11203;50.870;20.682;2022-08-21T00:55:00;19.90;1.00
21762;DHT22;11203;50.870;20.682;2022-08-21T00:57:38;19.90;1.00
21762;DHT22;11203;50.870;20.682;2022-08-21T01:00:11;19.90;1.00
21762;DHT22;11203;50.870;20.682;2022-08-21T01:02:41;19.90;1.00
21762;DHT22;11203;50.870;20.682;2022-08-21T01:05:08;19.90;1.00
21762;DHT22;11203;50.870;20.682;2022-08-21T01:07:35;19.90;1.00
21762;DHT22;11203;50.870;20.682;2022-08-21T01:10:02;19.90;1.00
21762;DHT22;11203;50.870;20.682;2022-08-21T01:12:31;19.90;1.00
21762;DHT22;11203;50.870;20.682;2022-08-21T01:14:58;19.90;1.00
21762;DHT22;11203;50.870;20.682;2022-08-21T01:17:26;19.90;1.00
21762;DHT22;11203;50.870;20.682;2022-08-21T01:19:53;19.80;1.00
21762;DHT22;11203;50.870;20.682;2022-08-21T01:22:23;19.80;1.00
21762;DHT22;11203;50.870;20.682;2022-08-21T01:24:49;19.90;1.00
21762;DHT22;11203;50.870;20.682;2022-08-21T01:27:15;19.80;1.00
21762;DHT22;11203;50.870;20.682;2022-08-21T01:29:53;19.70;1.00
21762;DHT22;11203;50.870;20.682;2022-08-21T01:32:36;19.70;1.00
21762;DHT22;11203;50.870;20.682;2022-08-21T01:35:03;19.60;52.70
21762;DHT22;11203;50.870;20.682;2022-08-21T01:37:29;19.60;99.90
21762;DHT22;11203;50.870;20.682;2022-08-21T01:39:55;19.50;99.90
21762;DHT22;11203;50.870;20.682;2022-08-21T01:42:22;19.60;99.90
21762;DHT22;11203;50.870;20.682;2022-08-21T01:44:48;19.50;99.90
21762;DHT22;11203;50.870;20.682;2022-08-21T01:47:14;19.40;1.00
21762;DHT22;11203;50.870;20.682;2022-08-21T01:49:42;19.30;99.90
21762;DHT22;11203;50.870;20.682;2022-08-21T01:52:09;19.20;99.90
21762;DHT22;11203;50.870;20.682;2022-08-21T01:54:37;19.30;99.90
21762;DHT22;11203;50.870;20.682;2022-08-21T01:57:04;19.20;1.00
21762;DHT22;11203;50.870;20.682;2022-08-21T01:59:31;19.20;1.00
21762;DHT22;11203;50.870;20.682;2022-08-21T02:01:57;19.20;1.00
21762;DHT22;11203;50.870;20.682;2022-08-21T02:04:24;19.10;1.00
21762;DHT22;11203;50.870;20.682;2022-08-21T02:06:50;19.20;1.00
21762;DHT22;11203;50.870;20.682;2022-08-21T02:09:17;19.20;1.00
21762;DHT22;11203;50.870;20.682;2022-08-21T02:11:43;19.10;83.00
21762;DHT22;11203;50.870;20.682;2022-08-21T02:14:11;19.10;1.00
21762;DHT22;11203;50.870;20.682;2022-08-21T02:16:40;19.10;1.00
21762;DHT22;11203;50.870;20.682;2022-08-21T02:19:08;19.10;99.90
21762;DHT22;11203;50.870;20.682;2022-08-21T02:21:34;19.10;99.90
21762;DHT22;11203;50.870;20.682;2022-08-21T02:24:01;19.10;99.90
21762;DHT22;11203;50.870;20.682;2022-08-21T02:26:27;19.10;99.90
21762;DHT22;11203;50.870;20.682;2022-08-21T02:28:53;19.10;99.90
21762;DHT22;11203;50.870;20.682;2022-08-21T02:31:20;19.10;55.40
21762;DHT22;11203;50.870;20.682;2022-08-21T02:33:46;19.10;1.00
21762;DHT22;11203;50.870;20.682;2022-08-21T02:36:12;19.10;99.90
21762;DHT22;11203;50.870;20.682;2022-08-21T02:38:40;19.00;1.00
21762;DHT22;11203;50.870;20.682;2022-08-21T02:41:12;18.90;44.20
21762;DHT22;11203;50.870;20.682;2022-08-21T02:43:40;19.00;1.00
21762;DHT22;11203;50.870;20.682;2022-08-21T02:46:09;18.90;2.80
21762;DHT22;11203;50.870;20.682;2022-08-21T02:48:37;18.90;99.90
21762;DHT22;11203;50.870;20.682;2022-08-21T02:51:10;18.90;97.30
21762;DHT22;11203;50.870;20.682;2022-08-21T02:53:37;18.90;99.90
21762;DHT22;11203;50.870;20.682;2022-08-21T02:56:06;18.90;90.30
21762;DHT22;11203;50.870;20.682;2022-08-21T02:58:40;18.80;1.00
21762;DHT22;11203;50.870;20.682;2022-08-21T03:01:09;18.80;1.00
21762;DHT22;11203;50.870;20.682;2022-08-21T03:03:37;18.80;99.90
21762;DHT22;11203;50.870;20.682;2022-08-21T03:06:07;18.80;99.90
21762;DHT22;11203;50.870;20.682;2022-08-21T03:08:34;18.80;99.90
21762;DHT22;11203;50.870;20.682;2022-08-21T03:11:01;18.70;99.90
21762;DHT22;11203;50.870;20.682;2022-08-21T03:13:28;18.70;1.00
21762;DHT22;11203;50.870;20.682;2022-08-21T03:15:54;18.60;99.90
21762;DHT22;11203;50.870;20.682;2022-08-21T03:18:21;18.60;99.90
21762;DHT22;11203;50.870;20.682;2022-08-21T03:20:48;18.60;1.00
21762;DHT22;11203;50.870;20.682;2022-08-21T03:23:16;18.60;1.00
21762;DHT22;11203;50.870;20.682;2022-08-21T03:25:44;18.60;1.00
21762;DHT22;11203;50.870;20.682;2022-08-21T03:28:15;18.60;1.00
21762;DHT22;11203;50.870;20.682;2022-08-21T03:30:45;18.60;1.00
21762;DHT22;11203;50.870;20.682;2022-08-21T03:33:13;18.50;1.00
21762;DHT22;11203;50.870;20.682;2022-08-21T03:35:39;18.60;1.00
21762;DHT22;11203;50.870;20.682;2022-08-21T03:38:07;18.60;1.00
21762;DHT22;11203;50.870;20.682;2022-08-21T03:40:33;18.60;1.00
21762;DHT22;11203;50.870;20.682;2022-08-21T03:42:59;18.60;99.90
21762;DHT22;11203;50.870;20.682;2022-08-21T03:45:25;18.60;1.00
21762;DHT22;11203;50.870;20.682;2022-08-21T03:47:54;18.50;1.00
21762;DHT22;11203;50.870;20.682;2022-08-21T03:50:27;18.40;1.00
21762;DHT22;11203;50.870;20.682;2022-08-21T03:52:55;18.40;1.00
21762;DHT22;11203;50.870;20.682;2022-08-21T03:55:22;18.40;1.00
21762;DHT22;11203;50.870;20.682;2022-08-21T03:57:49;18.50;1.00
21762;DHT22;11203;50.870;20.682;2022-08-21T04:00:15;18.50;1.00
21762;DHT22;11203;50.870;20.682;2022-08-21T04:02:43;18.50;1.00
21762;DHT22;11203;50.870;20.682;2022-08-21T04:05:09;18.60;1.00
21762;DHT22;11203;50.870;20.682;2022-08-21T04:07:38;18.60;1.00
21762;DHT22;11203;50.870;20.682;2022-08-21T04:10:05;18.50;35.80
21762;DHT22;11203;50.870;20.682;2022-08-21T04:12:32;18.60;99.90
21762;DHT22;11203;50.870;20.682;2022-08-21T04:14:59;18.60;99.90
21762;DHT22;11203;50.870;20.682;2022-08-21T04:17:27;18.60;23.80
21762;DHT22;11203;50.870;20.682;2022-08-21T04:19:53;18.60;26.50
21762;DHT22;11203;50.870;20.682;2022-08-21T04:22:20;18.60;99.90
21762;DHT22;11203;50.870;20.682;2022-08-21T04:24:46;18.60;99.90
21762;DHT22;11203;50.870;20.682;2022-08-21T04:27:12;18.70;99.90
21762;DHT22;11203;50.870;20.682;2022-08-21T04:29:38;18.70;99.90
21762;DHT22;11203;50.870;20.682;2022-08-21T04:32:04;18.80;99.90
21762;DHT22;11203;50.870;20.682;2022-08-21T04:34:31;18.80;99.90
21762;DHT22;11203;50.870;20.682;2022-08-21T04:36:57;18.90;99.90
21762;DHT22;11203;50.870;20.682;2022-08-21T04:39:23;19.00;99.90
21762;DHT22;11203;50.870;20.682;2022-08-21T04:41:49;18.90;99.90
21762;DHT22;11203;50.870;20.682;2022-08-21T04:44:16;19.00;99.90
21762;DHT22;11203;50.870;20.682;2022-08-21T04:46:42;19.00;17.30
21762;DHT22;11203;50.870;20.682;2022-08-21T04:49:07;19.00;1.00
21762;DHT22;11203;50.870;20.682;2022-08-21T04:51:36;19.00;1.00
21762;DHT22;11203;50.870;20.682;2022-08-21T04:54:10;19.10;1.00
21762;DHT22;11203;50.870;20.682;2022-08-21T04:56:44;19.10;1.00
21762;DHT22;11203;50.870;20.682;2022-08-21T04:59:22;19.20;1.00
21762;DHT22;11203;50.870;20.682;2022-08-21T05:01:52;19.20;1.00
21762;DHT22;11203;50.870;20.682;2022-08-21T05:04:25;19.30;1.00
21762;DHT22;11203;50.870;20.682;2022-08-21T05:06:54;19.50;1.00
21762;DHT22;11203;50.870;20.682;2022-08-21T05:09:24;19.50;99.90
21762;DHT22;11203;50.870;20.682;2022-08-21T05:11:50;19.50;99.90
21762;DHT22;11203;50.870;20.682;2022-08-21T05:14:18;19.60;99.90
21762;DHT22;11203;50.870;20.682;2022-08-21T05:16:46;19.70;1.00
21762;DHT22;11203;50.870;20.682;2022-08-21T05:19:12;19.70;1.00
21762;DHT22;11203;50.870;20.682;2022-08-21T05:21:41;19.80;1.00
21762;DHT22;11203;50.870;20.682;2022-08-21T05:24:09;19.80;1.00
21762;DHT22;11203;50.870;20.682;2022-08-21T05:26:35;19.90;1.00
21762;DHT22;11203;50.870;20.682;2022-08-21T05:29:02;19.80;99.90
21762;DHT22;11203;50.870;20.682;2022-08-21T05:31:29;19.90;1.00
21762;DHT22;11203;50.870;20.682;2022-08-21T05:33:55;20.00;1.00
21762;DHT22;11203;50.870;20.682;2022-08-21T05:36:21;20.10;99.90
21762;DHT22;11203;50.870;20.682;2022-08-21T05:38:48;20.10;99.90
21762;DHT22;11203;50.870;20.682;2022-08-21T05:41:14;20.20;99.90
21762;DHT22;11203;50.870;20.682;2022-08-21T05:43:40;20.20;99.90
21762;DHT22;11203;50.870;20.682;2022-08-21T05:46:07;20.20;1.00
21762;DHT22;11203;50.870;20.682;2022-08-21T05:48:35;20.20;1.00
21762;DHT22;11203;50.870;20.682;2022-08-21T05:51:09;20.20;1.00
21762;DHT22;11203;50.870;20.682;2022-08-21T05:53:37;20.40;1.00
21762;DHT22;11203;50.870;20.682;2022-08-21T05:56:04;20.40;1.00
21762;DHT22;11203;50.870;20.682;2022-08-21T05:58:32;20.40;1.00
21762;DHT22;11203;50.870;20.682;2022-08-21T06:01:00;20.50;1.00
21762;DHT22;11203;50.870;20.682;2022-08-21T06:03:31;20.60;99.90
21762;DHT22;11203;50.870;20.682;2022-08-21T06:05:59;20.80;99.90
21762;DHT22;11203;50.870;20.682;2022-08-21T06:08:26;20.80;41.50
21762;DHT22;11203;50.870;20.682;2022-08-21T06:10:54;20.90;1.00
21762;DHT22;11203;50.870;20.682;2022-08-21T06:13:22;21.00;1.00
21762;DHT22;11203;50.870;20.682;2022-08-21T06:15:50;21.10;1.00
21762;DHT22;11203;50.870;20.682;2022-08-21T06:18:16;21.20;99.90
21762;DHT22;11203;50.870;20.682;2022-08-21T06:20:43;21.30;99.90
21762;DHT22;11203;50.870;20.682;2022-08-21T06:23:10;21.40;99.90
21762;DHT22;11203;50.870;20.682;2022-08-21T06:25:35;21.60;1.00
21762;DHT22;11203;50.870;20.682;2022-08-21T06:28:04;21.60;1.00
21762;DHT22;11203;50.870;20.682;2022-08-21T06:30:33;21.70;99.90
21762;DHT22;11203;50.870;20.682;2022-08-21T06:33:01;21.80;99.90
21762;DHT22;11203;50.870;20.682;2022-08-21T06:35:28;21.90;1.00
21762;DHT22;11203;50.870;20.682;2022-08-21T06:37:55;21.90;1.00
21762;DHT22;11203;50.870;20.682;2022-08-21T06:40:22;22.00;1.00
21762;DHT22;11203;50.870;20.682;2022-08-21T06:42:48;22.10;1.00
21762;DHT22;11203;50.870;20.682;2022-08-21T06:45:15;22.10;1.00
21762;DHT22;11203;50.870;20.682;2022-08-21T06:47:41;22.10;1.00
21762;DHT22;11203;50.870;20.682;2022-08-21T06:50:07;22.20;99.90
21762;DHT22;11203;50.870;20.682;2022-08-21T06:52:35;22.30;99.90
21762;DHT22;11203;50.870;20.682;2022-08-21T06:55:02;22.40;99.90
21762;DHT22;11203;50.870;20.682;2022-08-21T06:57:30;22.50;99.90
21762;DHT22;11203;50.870;20.682;2022-08-21T06:59:56;22.60;99.90
21762;DHT22;11203;50.870;20.682;2022-08-21T07:02:22;22.70;1.00
21762;DHT22;11203;50.870;20.682;2022-08-21T07:04:48;22.80;1.00
21762;DHT22;11203;50.870;20.682;2022-08-21T07:07:14;22.90;1.00
21762;DHT22;11203;50.870;20.682;2022-08-21T07:09:40;23.10;1.00
21762;DHT22;11203;50.870;20.682;2022-08-21T07:12:06;23.10;1.00
21762;DHT22;11203;50.870;20.682;2022-08-21T07:14:33;23.10;1.00
21762;DHT22;11203;50.870;20.682;2022-08-21T07:16:59;23.20;1.00
21762;DHT22;11203;50.870;20.682;2022-08-21T07:19:26;23.30;1.00
21762;DHT22;11203;50.870;20.682;2022-08-21T07:21:56;23.30;1.00
21762;DHT22;11203;50.870;20.682;2022-08-21T07:24:25;23.30;99.90
21762;DHT22;11203;50.870;20.682;2022-08-21T07:26:51;23.40;1.00
21762;DHT22;11203;50.870;20.682;2022-08-21T07:29:17;23.30;99.90
21762;DHT22;11203;50.870;20.682;2022-08-21T07:31:44;23.40;99.90
21762;DHT22;11203;50.870;20.682;2022-08-21T07:34:10;23.40;99.90
21762;DHT22;11203;50.870;20.682;2022-08-21T07:36:39;23.50;1.00
21762;DHT22;11203;50.870;20.682;2022-08-21T07:39:05;23.30;99.90
21762;DHT22;11203;50.870;20.682;2022-08-21T07:41:31;23.40;99.90
21762;DHT22;11203;50.870;20.682;2022-08-21T07:43:59;23.40;99.90
21762;DHT22;11203;50.870;20.682;2022-08-21T07:46:25;23.30;99.90
21762;DHT22;11203;50.870;20.682;2022-08-21T07:48:52;23.40;99.90
21762;DHT22;11203;50.870;20.682;2022-08-21T07:51:25;23.50;99.90
21762;DHT22;11203;50.870;20.682;2022-08-21T07:53:55;23.60;99.90
21762;DHT22;11203;50.870;20.682;2022-08-21T07:56:23;23.70;99.90
21762;DHT22;11203;50.870;20.682;2022-08-21T07:58:49;23.80;99.90
21762;DHT22;11203;50.870;20.682;2022-08-21T08:01:15;23.80;99.90
21762;DHT22;11203;50.870;20.682;2022-08-21T08:03:42;24.00;99.90
21762;DHT22;11203;50.870;20.682;2022-08-21T08:06:08;24.20;99.90
21762;DHT22;11203;50.870;20.682;2022-08-21T08:08:38;24.30;46.70
21762;DHT22;11203;50.870;20.682;2022-08-21T08:11:06;24.30;26.60
21762;DHT22;11203;50.870;20.682;2022-08-21T08:13:39;24.30;1.00
21762;DHT22;11203;50.870;20.682;2022-08-21T08:16:07;24.40;1.00
21762;DHT22;11203;50.870;20.682;2022-08-21T08:18:33;24.50;1.00
21762;DHT22;11203;50.870;20.682;2022-08-21T08:20:59;24.60;1.00
21762;DHT22;11203;50.870;20.682;2022-08-21T08:23:25;24.70;1.00
21762;DHT22;11203;50.870;20.682;2022-08-21T08:25:53;24.80;1.00
21762;DHT22;11203;50.870;20.682;2022-08-21T08:28:19;24.90;1.00
21762;DHT22;11203;50.870;20.682;2022-08-21T08:30:46;24.90;1.00
21762;DHT22;11203;50.870;20.682;2022-08-21T08:33:13;25.00;1.00
21762;DHT22;11203;50.870;20.682;2022-08-21T08:35:41;25.10;1.00
21762;DHT22;11203;50.870;20.682;2022-08-21T08:38:08;25.20;1.00
21762;DHT22;11203;50.870;20.682;2022-08-21T08:43:33;25.20;99.90
21762;DHT22;11203;50.870;20.682;2022-08-21T08:46:08;25.20;99.90
21762;DHT22;11203;50.870;20.682;2022-08-21T08:51:53;25.40;99.90
21762;DHT22;11203;50.870;20.682;2022-08-21T08:54:38;25.30;99.90
21762;DHT22;11203;50.870;20.682;2022-08-21T08:57:18;25.40;99.90
21762;DHT22;11203;50.870;20.682;2022-08-21T08:59:52;25.50;36.10
21762;DHT22;11203;50.870;20.682;2022-08-21T09:02:22;25.40;15.30
21762;DHT22;11203;50.870;20.682;2022-08-21T09:04:53;25.60;1.00
21762;DHT22;11203;50.870;20.682;2022-08-21T09:10:21;25.60;1.00
21762;DHT22;11203;50.870;20.682;2022-08-21T09:15:36;25.70;1.00
21762;DHT22;11203;50.870;20.682;2022-08-21T09:21:13;25.70;1.00
21762;DHT22;11203;50.870;20.682;2022-08-21T09:23:50;25.70;1.00
21762;DHT22;11203;50.870;20.682;2022-08-21T09:26:25;25.70;1.00
21762;DHT22;11203;50.870;20.682;2022-08-21T09:28:58;25.90;1.00
21762;DHT22;11203;50.870;20.682;2022-08-21T09:31:33;26.00;1.00
21762;DHT22;11203;50.870;20.682;2022-08-21T09:34:10;26.20;1.00
21762;DHT22;11203;50.870;20.682;2022-08-21T09:36:49;26.20;1.00
21762;DHT22;11203;50.870;20.682;2022-08-21T09:39:28;26.30;1.00
21762;DHT22;11203;50.870;20.682;2022-08-21T09:42:04;26.30;1.00
21762;DHT22;11203;50.870;20.682;2022-08-21T09:44:35;26.40;1.00
21762;DHT22;11203;50.870;20.682;2022-08-21T09:47:07;26.40;1.00
21762;DHT22;11203;50.870;20.682;2022-08-21T09:49:39;26.50;1.00
21762;DHT22;11203;50.870;20.682;2022-08-21T09:52:22;26.50;1.00
21762;DHT22;11203;50.870;20.682;2022-08-21T09:54:54;26.70;1.00
21762;DHT22;11203;50.870;20.682;2022-08-21T09:57:30;26.60;99.90
21762;DHT22;11203;50.870;20.682;2022-08-21T10:03:11;26.60;99.90
21762;DHT22;11203;50.870;20.682;2022-08-21T10:05:38;26.80;99.90
21762;DHT22;11203;50.870;20.682;2022-08-21T10:08:16;26.80;99.90
21762;DHT22;11203;50.870;20.682;2022-08-21T10:10:44;26.70;99.90
21762;DHT22;11203;50.870;20.682;2022-08-21T10:13:19;26.60;99.90
21762;DHT22;11203;50.870;20.682;2022-08-21T10:24:52;26.70;99.90
21762;DHT22;11203;50.870;20.682;2022-08-21T10:30:14;26.90;99.90
21762;DHT22;11203;50.870;20.682;2022-08-21T10:33:10;26.80;99.90
21762;DHT22;11203;50.870;20.682;2022-08-21T10:38:58;26.80;99.90
21762;DHT22;11203;50.870;20.682;2022-08-21T10:45:01;26.90;99.90
21762;DHT22;11203;50.870;20.682;2022-08-21T10:47:35;26.90;99.90
21762;DHT22;11203;50.870;20.682;2022-08-21T10:50:08;26.70;86.80
21762;DHT22;11203;50.870;20.682;2022-08-21T10:53:11;26.80;90.80
21762;DHT22;11203;50.870;20.682;2022-08-21T10:56:02;27.00;99.90
21762;DHT22;11203;50.870;20.682;2022-08-21T11:01:40;27.00;89.60
21762;DHT22;11203;50.870;20.682;2022-08-21T11:04:34;27.10;30.00
21762;DHT22;11203;50.870;20.682;2022-08-21T11:07:22;27.30;42.50
21762;DHT22;11203;50.870;20.682;2022-08-21T11:09:52;27.20;18.80
21762;DHT22;11203;50.870;20.682;2022-08-21T11:21:47;27.20;1.00
21762;DHT22;11203;50.870;20.682;2022-08-21T11:23:54;27.40;1.00
21762;DHT22;11203;50.870;20.682;2022-08-21T11:29:25;27.50;1.00
21762;DHT22;11203;50.870;20.682;2022-08-21T11:43:45;27.80;1.00
21762;DHT22;11203;50.870;20.682;2022-08-21T11:52:57;27.40;1.00
21762;DHT22;11203;50.870;20.682;2022-08-21T11:55:45;27.30;1.00
21762;DHT22;11203;50.870;20.682;2022-08-21T11:58:28;27.20;1.00
21762;DHT22;11203;50.870;20.682;2022-08-21T12:01:10;27.00;1.00
21762;DHT22;11203;50.870;20.682;2022-08-21T12:04:01;26.70;1.00
21762;DHT22;11203;50.870;20.682;2022-08-21T12:06:44;26.70;1.00
21762;DHT22;11203;50.870;20.682;2022-08-21T12:09:31;26.70;1.00
21762;DHT22;11203;50.870;20.682;2022-08-21T12:12:10;26.60;1.00
21762;DHT22;11203;50.870;20.682;2022-08-21T12:14:50;26.60;1.00
21762;DHT22;11203;50.870;20.682;2022-08-21T12:17:20;26.60;1.00
21762;DHT22;11203;50.870;20.682;2022-08-21T12:20:01;26.70;1.00
21762;DHT22;11203;50.870;20.682;2022-08-21T12:28:40;26.50;1.00
21762;DHT22;11203;50.870;20.682;2022-08-21T12:31:21;26.40;1.00
21762;DHT22;11203;50.870;20.682;2022-08-21T12:33:58;26.40;1.00
21762;DHT22;11203;50.870;20.682;2022-08-21T12:36:41;26.30;1.00
21762;DHT22;11203;50.870;20.682;2022-08-21T12:39:14;26.40;1.00
21762;DHT22;11203;50.870;20.682;2022-08-21T12:41:49;26.30;1.00
21762;DHT22;11203;50.870;20.682;2022-08-21T12:47:14;26.30;1.00
21762;DHT22;11203;50.870;20.682;2022-08-21T12:50:13;26.30;1.00
21762;DHT22;11203;50.870;20.682;2022-08-21T12:52:54;26.30;1.00
21762;DHT22;11203;50.870;20.682;2022-08-21T12:55:30;26.30;1.00
21762;DHT22;11203;50.870;20.682;2022-08-21T12:57:59;26.30;1.00
21762;DHT22;11203;50.870;20.682;2022-08-21T13:00:28;26.40;1.00
21762;DHT22;11203;50.870;20.682;2022-08-21T13:02:56;26.20;1.00
21762;DHT22;11203;50.870;20.682;2022-08-21T13:05:35;26.20;1.00
21762;DHT22;11203;50.870;20.682;2022-08-21T13:08:07;26.10;1.00
21762;DHT22;11203;50.870;20.682;2022-08-21T13:10:34;26.00;1.00
21762;DHT22;11203;50.870;20.682;2022-08-21T13:13:20;26.00;1.00
21762;DHT22;11203;50.870;20.682;2022-08-21T13:15:47;25.90;1.00
21762;DHT22;11203;50.870;20.682;2022-08-21T13:18:51;25.90;1.00
21762;DHT22;11203;50.870;20.682;2022-08-21T13:21:34;25.90;1.00
21762;DHT22;11203;50.870;20.682;2022-08-21T13:26:56;25.90;1.00
21762;DHT22;11203;50.870;20.682;2022-08-21T13:29:28;26.00;1.00
21762;DHT22;11203;50.870;20.682;2022-08-21T13:32:01;25.90;1.00
21762;DHT22;11203;50.870;20.682;2022-08-21T13:34:37;25.90;1.00
21762;DHT22;11203;50.870;20.682;2022-08-21T13:37:07;25.90;1.00
21762;DHT22;11203;50.870;20.682;2022-08-21T13:39:36;25.90;1.00
21762;DHT22;11203;50.870;20.682;2022-08-21T13:42:12;25.90;1.00
21762;DHT22;11203;50.870;20.682;2022-08-21T13:44:45;25.80;1.00
21762;DHT22;11203;50.870;20.682;2022-08-21T13:47:17;25.90;1.00
21762;DHT22;11203;50.870;20.682;2022-08-21T13:49:47;25.90;1.00
21762;DHT22;11203;50.870;20.682;2022-08-21T13:52:22;26.00;1.00
21762;DHT22;11203;50.870;20.682;2022-08-21T13:55:00;26.00;1.00
21762;DHT22;11203;50.870;20.682;2022-08-21T13:57:41;25.90;1.00
21762;DHT22;11203;50.870;20.682;2022-08-21T14:00:20;26.00;1.00
21762;DHT22;11203;50.870;20.682;2022-08-21T14:03:06;26.00;1.00
21762;DHT22;11203;50.870;20.682;2022-08-21T14:05:43;26.00;1.00
21762;DHT22;11203;50.870;20.682;2022-08-21T14:08:31;26.10;1.00
21762;DHT22;11203;50.870;20.682;2022-08-21T14:11:03;26.20;1.00
21762;DHT22;11203;50.870;20.682;2022-08-21T14:13:33;26.30;1.00
21762;DHT22;11203;50.870;20.682;2022-08-21T14:16:40;26.40;1.00
21762;DHT22;11203;50.870;20.682;2022-08-21T14:19:25;26.40;1.00
21762;DHT22;11203;50.870;20.682;2022-08-21T14:22:27;26.50;1.00
21762;DHT22;11203;50.870;20.682;2022-08-21T14:25:13;26.40;1.00
21762;DHT22;11203;50.870;20.682;2022-08-21T14:27:53;26.40;1.00
21762;DHT22;11203;50.870;20.682;2022-08-21T14:32:58;26.40;1.00
21762;DHT22;11203;50.870;20.682;2022-08-21T14:35:26;26.40;1.00
21762;DHT22;11203;50.870;20.682;2022-08-21T14:37:52;26.40;1.00
21762;DHT22;11203;50.870;20.682;2022-08-21T14:40:24;26.50;1.00
21762;DHT22;11203;50.870;20.682;2022-08-21T14:43:03;26.40;1.00
21762;DHT22;11203;50.870;20.682;2022-08-21T14:45:31;26.30;1.00
21762;DHT22;11203;50.870;20.682;2022-08-21T14:47:59;26.20;1.00
21762;DHT22;11203;50.870;20.682;2022-08-21T14:50:30;26.30;1.00
21762;DHT22;11203;50.870;20.682;2022-08-21T14:52:57;26.20;1.00
21762;DHT22;11203;50.870;20.682;2022-08-21T14:55:23;26.20;1.00
21762;DHT22;11203;50.870;20.682;2022-08-21T14:57:50;26.30;1.00
21762;DHT22;11203;50.870;20.682;2022-08-21T15:00:21;26.20;1.00
21762;DHT22;11203;50.870;20.682;2022-08-21T15:02:52;26.30;1.00
21762;DHT22;11203;50.870;20.682;2022-08-21T15:05:18;26.30;1.00
21762;DHT22;11203;50.870;20.682;2022-08-21T15:07:45;26.30;1.00
21762;DHT22;11203;50.870;20.682;2022-08-21T15:10:12;26.20;1.00
21762;DHT22;11203;50.870;20.682;2022-08-21T15:12:38;26.30;1.00
21762;DHT22;11203;50.870;20.682;2022-08-21T15:15:05;26.20;1.00
21762;DHT22;11203;50.870;20.682;2022-08-21T15:17:33;26.30;1.00
21762;DHT22;11203;50.870;20.682;2022-08-21T15:19:59;26.30;1.00
21762;DHT22;11203;50.870;20.682;2022-08-21T15:22:25;26.30;1.00
21762;DHT22;11203;50.870;20.682;2022-08-21T15:24:52;26.30;1.00
21762;DHT22;11203;50.870;20.682;2022-08-21T15:27:18;26.30;1.00
21762;DHT22;11203;50.870;20.682;2022-08-21T15:29:45;26.30;1.00
21762;DHT22;11203;50.870;20.682;2022-08-21T15:32:18;26.30;1.00
21762;DHT22;11203;50.870;20.682;2022-08-21T15:34:54;26.30;1.00
21762;DHT22;11203;50.870;20.682;2022-08-21T15:37:21;26.10;1.00
21762;DHT22;11203;50.870;20.682;2022-08-21T15:39:52;26.00;1.00
21762;DHT22;11203;50.870;20.682;2022-08-21T15:42:19;26.10;1.00
21762;DHT22;11203;50.870;20.682;2022-08-21T15:44:47;26.10;1.00
21762;DHT22;11203;50.870;20.682;2022-08-21T15:47:19;26.10;1.00
21762;DHT22;11203;50.870;20.682;2022-08-21T15:49:48;26.20;1.00
21762;DHT22;11203;50.870;20.682;2022-08-21T15:52:17;26.00;1.00
21762;DHT22;11203;50.870;20.682;2022-08-21T15:54:44;25.90;1.00
21762;DHT22;11203;50.870;20.682;2022-08-21T15:57:14;25.90;1.00
21762;DHT22;11203;50.870;20.682;2022-08-21T15:59:47;25.90;1.00
21762;DHT22;11203;50.870;20.682;2022-08-21T16:02:20;25.60;1.00
21762;DHT22;11203;50.870;20.682;2022-08-21T16:04:48;25.70;1.00
21762;DHT22;11203;50.870;20.682;2022-08-21T16:07:14;25.60;1.00
21762;DHT22;11203;50.870;20.682;2022-08-21T16:09:44;25.60;1.00
21762;DHT22;11203;50.870;20.682;2022-08-21T16:12:17;25.60;1.00
21762;DHT22;11203;50.870;20.682;2022-08-21T16:14:47;25.60;1.00
21762;DHT22;11203;50.870;20.682;2022-08-21T16:17:15;25.50;1.00
21762;DHT22;11203;50.870;20.682;2022-08-21T16:19:42;25.50;1.00
21762;DHT22;11203;50.870;20.682;2022-08-21T16:22:08;25.40;1.00
21762;DHT22;11203;50.870;20.682;2022-08-21T16:24:35;25.30;1.00
21762;DHT22;11203;50.870;20.682;2022-08-21T16:27:02;25.20;1.00
21762;DHT22;11203;50.870;20.682;2022-08-21T16:29:33;25.20;1.00
21762;DHT22;11203;50.870;20.682;2022-08-21T16:32:01;25.20;1.00
21762;DHT22;11203;50.870;20.682;2022-08-21T16:34:27;25.00;1.00
21762;DHT22;11203;50.870;20.682;2022-08-21T16:36:55;25.00;1.00
21762;DHT22;11203;50.870;20.682;2022-08-21T16:39:25;25.00;1.00
21762;DHT22;11203;50.870;20.682;2022-08-21T16:41:51;25.10;1.00
21762;DHT22;11203;50.870;20.682;2022-08-21T16:44:18;25.00;1.00
21762;DHT22;11203;50.870;20.682;2022-08-21T16:46:46;25.00;1.00
21762;DHT22;11203;50.870;20.682;2022-08-21T16:49:12;25.00;1.00
21762;DHT22;11203;50.870;20.682;2022-08-21T16:51:39;24.90;1.00
21762;DHT22;11203;50.870;20.682;2022-08-21T16:54:05;24.90;1.00
21762;DHT22;11203;50.870;20.682;2022-08-21T16:56:31;24.90;1.00
21762;DHT22;11203;50.870;20.682;2022-08-21T16:59:00;24.80;1.00
21762;DHT22;11203;50.870;20.682;2022-08-21T17:01:31;24.80;1.00
21762;DHT22;11203;50.870;20.682;2022-08-21T17:03:59;24.70;1.00
21762;DHT22;11203;50.870;20.682;2022-08-21T17:06:25;24.80;1.00
21762;DHT22;11203;50.870;20.682;2022-08-21T17:08:52;24.70;6.70